createdAt,value
2019-04-26T00:02:00.852Z,97539.52
2019-04-26T00:04:34.108Z,97544.13
2019-04-26T00:07:08.118Z,97534.44
2019-04-26T00:09:41.755Z,97534.56
2019-04-26T00:12:36.648Z,97537.64
2019-04-26T00:15:38.294Z,97530.81
2019-04-26T00:18:12.822Z,97534.04
2019-04-26T00:20:46.217Z,97543.73
2019-04-26T00:23:18.419Z,97535.62
2019-04-26T00:25:51.570Z,97534.30
2019-04-26T00:28:24.619Z,97542.84
2019-04-26T00:30:57.657Z,97548.44
2019-04-26T00:33:30.476Z,97559.57
2019-04-26T00:36:02.773Z,97554.53
2019-04-26T00:38:35.418Z,97545.73
2019-04-26T00:41:08.859Z,97539.26
2019-04-26T00:43:43.553Z,97534.70
2019-04-26T00:46:19.190Z,97547.48
2019-04-26T00:48:54.914Z,97549.23
2019-04-26T00:51:28.884Z,97553.83
2019-04-26T00:54:03.085Z,97547.11
2019-04-26T00:56:38.041Z,97550.09
2019-04-26T00:59:14.909Z,97552.05
2019-04-26T01:01:51.188Z,97549.20
2019-04-26T01:04:25.874Z,97546.67
2019-04-26T01:07:00.131Z,97558.16
2019-04-26T01:09:33.169Z,97556.55
2019-04-26T01:12:05.932Z,97552.30
2019-04-26T01:14:38.877Z,97561.70
2019-04-26T01:17:11.917Z,97562.37
2019-04-26T01:19:46.509Z,97559.44
2019-04-26T01:22:27.527Z,97551.19
2019-04-26T01:25:04.151Z,97544.55
2019-04-26T01:27:39.164Z,97541.55
2019-04-26T01:30:14.111Z,97541.26
2019-04-26T01:32:47.363Z,97542.73
2019-04-26T01:35:24.213Z,97544.88
2019-04-26T01:38:01.513Z,97559.32
2019-04-26T01:40:36.769Z,97550.67
2019-04-26T01:43:17.655Z,97553.02
2019-04-26T01:45:58.816Z,97540.72
2019-04-26T01:48:45.452Z,97539.08
2019-04-26T01:51:29.400Z,97543.20
2019-04-26T01:54:03.128Z,97538.92
2019-04-26T01:56:38.669Z,97543.23
2019-04-26T01:59:16.272Z,97547.23
2019-04-26T02:02:08.256Z,97556.08
2019-04-26T02:04:45.271Z,97561.72
2019-04-26T02:07:57.050Z,97564.22
2019-04-26T02:10:32.672Z,97554.29
2019-04-26T02:13:07.194Z,97551.31
2019-04-26T02:15:41.550Z,97567.39
2019-04-26T02:18:15.007Z,97572.84
2019-04-26T02:21:32.012Z,97565.89
2019-04-26T02:24:28.008Z,97569.50
2019-04-26T02:27:03.972Z,97578.06
2019-04-26T02:29:37.105Z,97584.23
2019-04-26T02:32:10.723Z,97578.26
2019-04-26T02:34:44.259Z,97565.98
2019-04-26T02:37:18.630Z,97556.41
2019-04-26T02:39:53.521Z,97553.92
2019-04-26T02:42:41.545Z,97553.05
2019-04-26T02:46:17.998Z,97553.02
2019-04-26T02:49:21.998Z,97544.75
2019-04-26T02:52:43.168Z,97554.86
2019-04-26T02:55:54.457Z,97556.83
2019-04-26T02:58:35.184Z,97562.40
2019-04-26T03:01:08.655Z,97563.08
2019-04-26T03:03:41.919Z,97563.88
2019-04-26T03:06:15.201Z,97570.80
2019-04-26T03:08:47.242Z,97582.14
2019-04-26T03:11:24.585Z,97577.55
2019-04-26T03:14:20.945Z,97582.00
2019-04-26T03:17:06.605Z,97592.41
2019-04-26T03:19:59.423Z,97593.41
2019-04-26T03:23:04.449Z,97589.12
2019-04-26T03:26:26.264Z,97586.81
2019-04-26T03:29:36.919Z,97593.16
2019-04-26T03:32:50.460Z,97587.17
2019-04-26T03:35:36.896Z,97589.02
2019-04-26T03:38:25.484Z,97603.70
2019-04-26T03:41:25.377Z,97606.08
2019-04-26T03:44:28.551Z,97603.23
2019-04-26T03:47:15.105Z,97606.72
2019-04-26T03:50:14.887Z,97612.06
2019-04-26T03:53:26.284Z,97610.58
2019-04-26T03:57:02.712Z,97610.53
2019-04-26T04:00:43.540Z,97620.75
2019-04-26T04:04:02.660Z,97626.05
2019-04-26T04:07:03.003Z,97623.95
2019-04-26T04:09:39.793Z,97625.18
2019-04-26T04:12:52.125Z,97627.77
2019-04-26T04:15:41.926Z,97624.09
2019-04-26T04:18:23.711Z,97622.19
2019-04-26T04:21:54.367Z,97623.00
2019-04-26T04:24:41.754Z,97628.50
2019-04-26T04:27:40.152Z,97630.84
2019-04-26T04:30:42.022Z,97624.72
2019-04-26T04:34:03.010Z,97626.88
2019-04-26T04:36:51.409Z,97645.87
2019-04-26T04:40:15.628Z,97649.39
2019-04-26T04:43:48.789Z,97649.06
2019-04-26T04:46:55.090Z,97648.05
2019-04-26T04:50:06.340Z,97649.50
2019-04-26T04:53:28.862Z,97658.17
2019-04-26T04:56:35.104Z,97661.12
2019-04-26T04:59:13.883Z,97666.73
2019-04-26T05:02:25.878Z,97661.02
2019-04-26T05:05:28.035Z,97660.55
2019-04-26T05:08:21.543Z,97650.53
2019-04-26T05:11:09.410Z,97655.70
2019-04-26T05:14:17.201Z,97657.70
2019-04-26T05:17:47.464Z,97662.22
2019-04-26T05:20:53.681Z,97655.25
2019-04-26T05:24:04.542Z,97668.02
2019-04-26T05:27:44.527Z,97662.73
2019-04-26T05:31:09.428Z,97679.96
2019-04-26T05:34:34.511Z,97682.27
2019-04-26T05:38:17.766Z,97697.70
2019-04-26T05:41:44.712Z,97698.53
2019-04-26T05:45:20.793Z,97691.59
2019-04-26T05:48:17.832Z,97676.30
2019-04-26T05:52:04.718Z,97666.92
2019-04-26T05:55:11.831Z,97661.27
2019-04-26T05:58:34.761Z,97657.59
2019-04-26T06:02:48.158Z,97661.17
2019-04-26T06:06:26.659Z,97659.48
2019-04-26T06:10:13.593Z,97677.84
2019-04-26T06:13:30.731Z,97684.45
2019-04-26T06:17:01.707Z,97694.72
2019-04-26T06:20:04.069Z,97701.15
2019-04-26T06:23:16.340Z,97700.90
2019-04-26T06:26:40.712Z,97706.10
2019-04-26T06:29:38.057Z,97693.46
2019-04-26T06:32:31.544Z,97696.41
2019-04-26T06:35:24.345Z,97705.06
2019-04-26T06:38:51.150Z,97692.73
2019-04-26T06:42:11.074Z,97690.27
2019-04-26T06:46:04.904Z,97688.85
2019-04-26T06:49:29.094Z,97702.33
2019-04-26T06:52:10.641Z,97720.94
2019-04-26T06:55:27.748Z,97715.79
2019-04-26T06:58:45.506Z,97718.20
2019-04-26T07:01:32.844Z,97737.80
2019-04-26T07:05:09.677Z,97742.33
2019-04-26T07:08:36.408Z,97742.69
2019-04-26T07:12:32.515Z,97756.11
2019-04-26T07:15:57.811Z,97746.56
2019-04-26T07:19:21.844Z,97749.22
2019-04-26T07:22:35.901Z,97747.23
2019-04-26T07:25:48.681Z,97748.51
2019-04-26T07:28:56.477Z,97758.68
2019-04-26T07:31:54.602Z,97774.23
2019-04-26T07:35:18.479Z,97780.75
2019-04-26T07:39:09.028Z,97784.39
2019-04-26T07:43:03.173Z,97765.02
2019-04-26T07:46:20.867Z,97759.25
2019-04-26T07:49:51.805Z,97748.51
2019-04-26T07:53:21.897Z,97753.72
2019-04-26T07:56:38.334Z,97759.05
2019-04-26T08:00:08.683Z,97755.52
2019-04-26T08:03:04.183Z,97751.16
2019-04-26T08:06:05.795Z,97768.00
2019-04-26T08:08:55.000Z,97762.03
2019-04-26T08:11:50.999Z,97772.84
2019-04-26T08:14:39.164Z,97777.31
2019-04-26T08:17:49.029Z,97777.24
2019-04-26T08:20:55.579Z,97772.27
2019-04-26T08:23:57.811Z,97779.11
2019-04-26T08:26:42.421Z,97790.80
2019-04-26T08:29:25.981Z,97810.45
2019-04-26T08:32:03.126Z,97794.81
2019-04-26T08:34:45.645Z,97829.02
2019-04-26T08:37:32.297Z,97826.66
2019-04-26T08:40:07.343Z,97824.52
2019-04-26T08:42:53.385Z,97816.14
2019-04-26T08:46:01.974Z,97803.07
2019-04-26T08:48:50.590Z,97816.91
2019-04-26T08:51:26.150Z,97812.05
2019-04-26T08:54:07.864Z,97819.41
2019-04-26T08:56:48.724Z,97826.14
2019-04-26T08:59:30.344Z,97824.69
2019-04-26T09:02:18.533Z,97833.67
2019-04-26T09:05:15.917Z,97843.02
2019-04-26T09:07:57.612Z,97848.05
2019-04-26T09:10:34.519Z,97859.34
2019-04-26T09:13:16.856Z,97865.41
2019-04-26T09:16:16.149Z,97853.27
2019-04-26T09:18:54.293Z,97850.23
2019-04-26T09:21:40.113Z,97854.30
2019-04-26T09:24:31.762Z,97856.82
2019-04-26T09:27:23.999Z,97865.39
2019-04-26T09:30:15.044Z,97871.41
2019-04-26T09:33:11.418Z,97865.77
2019-04-26T09:35:46.650Z,97870.53
2019-04-26T09:38:20.603Z,97868.75
2019-04-26T09:40:56.221Z,97877.77
2019-04-26T09:43:40.073Z,97866.00
2019-04-26T09:46:32.490Z,97879.20
2019-04-26T09:49:24.040Z,97874.47
2019-04-26T09:51:57.564Z,97882.75
2019-04-26T09:54:31.662Z,97884.13
2019-04-26T09:57:05.357Z,97893.86
2019-04-26T09:59:40.023Z,97890.49
2019-04-26T10:02:14.351Z,97886.01
2019-04-26T10:04:48.151Z,97882.23
2019-04-26T10:07:21.996Z,97898.05
2019-04-26T10:09:56.493Z,97903.06
2019-04-26T10:12:35.762Z,97902.97
2019-04-26T10:15:31.083Z,97896.09
2019-04-26T10:18:08.059Z,97902.55
2019-04-26T10:20:40.830Z,97906.13
2019-04-26T10:23:14.463Z,97908.52
2019-04-26T10:25:52.032Z,97910.48
2019-04-26T10:28:23.781Z,97913.67
2019-04-26T10:30:54.814Z,97927.98
2019-04-26T10:33:27.532Z,97928.51
2019-04-26T10:36:00.323Z,97921.10
2019-04-26T10:38:33.398Z,97922.54
2019-04-26T10:41:08.998Z,97924.44
2019-04-26T10:43:43.913Z,97922.05
2019-04-26T10:46:17.259Z,97921.88
2019-04-26T10:48:51.320Z,97917.81
2019-04-26T10:51:33.426Z,97920.61
2019-04-26T10:54:12.932Z,97925.70
2019-04-26T10:56:54.718Z,97923.03
2019-04-26T10:59:32.054Z,97927.24
2019-04-26T11:02:08.094Z,97934.75
2019-04-26T11:04:42.850Z,97930.97
2019-04-26T11:07:16.679Z,97935.80
2019-04-26T11:09:50.537Z,97928.02
2019-04-26T11:12:24.584Z,97925.14
2019-04-26T11:14:58.235Z,97914.40
2019-04-26T11:17:32.034Z,97914.70
2019-04-26T11:20:06.317Z,97900.23
2019-04-26T11:22:40.424Z,97897.39
2019-04-26T11:25:13.514Z,97906.05
2019-04-26T11:27:48.581Z,97904.84
2019-04-26T11:30:21.381Z,97912.89
2019-04-26T11:32:54.670Z,97915.16
2019-04-26T11:35:29.245Z,97910.06
2019-04-26T11:38:03.426Z,97914.48
2019-04-26T11:40:37.139Z,97914.09
2019-04-26T11:43:10.493Z,97919.73
2019-04-26T11:45:45.366Z,97919.95
2019-04-26T11:48:16.979Z,97933.97
2019-04-26T11:50:52.195Z,97936.75
2019-04-26T11:53:25.344Z,97939.73
2019-04-26T11:56:00.268Z,97936.04
2019-04-26T11:58:34.312Z,97950.00
2019-04-26T12:01:08.778Z,97941.83
2019-04-26T12:03:51.536Z,97946.59
2019-04-26T12:06:41.725Z,97956.67
2019-04-26T12:09:19.808Z,97970.67
2019-04-26T12:12:04.020Z,97966.05
2019-04-26T12:14:29.449Z,97977.65
2019-04-26T12:17:05.129Z,97975.68
2019-04-26T12:19:38.519Z,97982.25
2019-04-26T12:22:10.582Z,97981.22
2019-04-26T12:24:43.688Z,97987.98
2019-04-26T12:27:17.418Z,97982.38
2019-04-26T12:29:50.178Z,97985.70
2019-04-26T12:32:23.155Z,97990.69
2019-04-26T12:34:56.493Z,98008.55
2019-04-26T12:37:30.079Z,98001.22
2019-04-26T12:40:07.247Z,98004.67
2019-04-26T12:42:38.687Z,98004.37
2019-04-26T12:45:36.699Z,98012.03
2019-04-26T12:48:15.313Z,98015.09
2019-04-26T12:50:46.993Z,98028.23
2019-04-26T12:53:19.783Z,98033.72
2019-04-26T12:55:54.973Z,98043.36
2019-04-26T12:58:28.219Z,98040.03
2019-04-26T13:01:02.162Z,98039.37
2019-04-26T13:03:37.416Z,98036.06
2019-04-26T13:06:11.063Z,98037.05
2019-04-26T13:08:47.246Z,98040.05
2019-04-26T13:11:56.507Z,98037.38
2019-04-26T13:14:51.705Z,98030.41
2019-04-26T13:17:31.437Z,98035.38
2019-04-26T13:20:04.961Z,98042.04
2019-04-26T13:22:46.028Z,98043.19
2019-04-26T13:25:20.233Z,98051.66
2019-04-26T13:27:46.655Z,98049.98
2019-04-26T13:30:32.253Z,98052.96
2019-04-26T13:32:55.769Z,98065.61
2019-04-26T13:35:29.335Z,98066.05
2019-04-26T13:38:08.732Z,98053.77
2019-04-26T13:40:42.570Z,98034.35
2019-04-26T13:43:17.031Z,98030.20
2019-04-26T13:46:07.823Z,98049.98
2019-04-26T13:48:53.054Z,98064.84
2019-04-26T13:51:27.875Z,98068.22
2019-04-26T13:54:01.238Z,98072.53
2019-04-26T13:56:35.909Z,98074.55
2019-04-26T13:59:09.749Z,98068.91
2019-04-26T14:01:42.801Z,98065.41
2019-04-26T14:04:16.170Z,98076.20
2019-04-26T14:06:50.456Z,98100.39
2019-04-26T14:09:24.097Z,98104.30
2019-04-26T14:11:58.195Z,98117.59
2019-04-26T14:14:34.145Z,98116.82
2019-04-26T14:17:09.206Z,98122.22
2019-04-26T14:19:45.372Z,98125.09
2019-04-26T14:22:19.554Z,98122.11
2019-04-26T14:24:59.081Z,98122.83
2019-04-26T14:27:36.493Z,98124.79
2019-04-26T14:30:10.991Z,98121.50
2019-04-26T14:32:44.147Z,98126.80
2019-04-26T14:35:17.577Z,98140.41
2019-04-26T14:37:53.586Z,98144.08
2019-04-26T14:40:35.292Z,98146.08
2019-04-26T14:43:08.807Z,98146.81
2019-04-26T14:45:41.572Z,98161.59
2019-04-26T14:48:20.821Z,98161.02
2019-04-26T14:51:07.945Z,98160.55
2019-04-26T14:53:36.318Z,98162.64
2019-04-26T14:56:08.471Z,98158.67
2019-04-26T14:58:42.326Z,98160.20
2019-04-26T15:01:28.495Z,98154.71
2019-04-26T15:04:18.411Z,98139.95
2019-04-26T15:06:57.906Z,98133.25
2019-04-26T15:09:33.270Z,98135.48
2019-04-26T15:12:03.565Z,98149.53
2019-04-26T15:14:38.048Z,98140.39
2019-04-26T15:17:12.486Z,98130.92
2019-04-26T15:19:47.286Z,98135.80
2019-04-26T15:22:20.689Z,98129.75
2019-04-26T15:24:54.582Z,98135.64
2019-04-26T15:27:32.232Z,98147.48
2019-04-26T15:30:04.387Z,98139.78
2019-04-26T15:32:38.284Z,98139.77
2019-04-26T15:35:17.412Z,98135.30
2019-04-26T15:37:47.208Z,98146.28
2019-04-26T15:40:37.552Z,98140.25
2019-04-26T15:43:32.903Z,98148.16
2019-04-26T15:46:33.562Z,98157.02
2019-04-26T15:49:38.773Z,98156.98
2019-04-26T15:52:13.101Z,98158.53
2019-04-26T15:54:46.730Z,98168.85
2019-04-26T15:57:24.421Z,98174.85
2019-04-26T15:59:58.123Z,98169.77
2019-04-26T16:02:32.093Z,98178.63
2019-04-26T16:05:06.241Z,98177.05
2019-04-26T16:07:40.000Z,98179.89
2019-04-26T16:10:13.539Z,98174.92
2019-04-26T16:12:47.064Z,98161.00
2019-04-26T16:15:20.407Z,98161.03
2019-04-26T16:17:53.793Z,98179.41
2019-04-26T16:20:27.281Z,98188.63
2019-04-26T16:23:06.212Z,98191.80
2019-04-26T16:25:38.348Z,98183.27
2019-04-26T16:28:38.265Z,98166.75
2019-04-26T16:31:32.222Z,98151.48
2019-04-26T16:34:10.613Z,98148.98
2019-04-26T16:36:45.320Z,98152.14
2019-04-26T16:39:18.467Z,98173.61
2019-04-26T16:41:52.465Z,98178.08
2019-04-26T16:44:29.995Z,98168.55
2019-04-26T16:47:03.558Z,98169.14
2019-04-26T16:49:41.892Z,98198.55
2019-04-26T16:52:13.579Z,98209.16
2019-04-26T16:54:46.772Z,98202.79
2019-04-26T16:57:20.769Z,98201.45
2019-04-26T16:59:59.846Z,98203.20
2019-04-26T17:02:34.171Z,98201.59
2019-04-26T17:05:19.068Z,98199.44
2019-04-26T17:07:40.764Z,98198.98
2019-04-26T17:10:16.604Z,98203.79
2019-04-26T17:12:50.549Z,98204.63
2019-04-26T17:15:24.827Z,98207.80
2019-04-26T17:17:58.491Z,98208.73
2019-04-26T17:20:33.950Z,98207.69
2019-04-26T17:23:35.353Z,98207.56
2019-04-26T17:26:29.362Z,98207.05
2019-04-26T17:29:02.450Z,98203.53
2019-04-26T17:31:35.728Z,98205.12
2019-04-26T17:34:09.651Z,98204.75
2019-04-26T17:36:46.377Z,98208.09
2019-04-26T17:39:18.666Z,98217.31
2019-04-26T17:41:54.095Z,98222.16
2019-04-26T17:44:28.294Z,98223.19
2019-04-26T17:47:02.237Z,98232.78
2019-04-26T17:49:38.083Z,98240.11
2019-04-26T17:52:11.629Z,98234.72
2019-04-26T17:54:48.971Z,98234.56
2019-04-26T17:57:33.522Z,98238.34
2019-04-26T18:00:07.177Z,98235.72
2019-04-26T18:02:42.106Z,98240.13
2019-04-26T18:05:11.166Z,98238.91
2019-04-26T18:07:56.426Z,98242.20
2019-04-26T18:10:22.491Z,98237.62
2019-04-26T18:12:56.186Z,98244.77
2019-04-26T18:15:30.737Z,98253.84
2019-04-26T18:18:33.773Z,98256.88
2019-04-26T18:21:24.040Z,98254.05
2019-04-26T18:23:57.986Z,98249.92
2019-04-26T18:26:32.793Z,98257.09
2019-04-26T18:29:06.439Z,98251.06
2019-04-26T18:31:41.137Z,98253.39
2019-04-26T18:34:14.093Z,98258.84
2019-04-26T18:36:47.268Z,98264.41
2019-04-26T18:39:22.750Z,98261.66
2019-04-26T18:41:54.181Z,98262.69
2019-04-26T18:44:36.241Z,98264.27
2019-04-26T18:47:20.564Z,98268.91
2019-04-26T18:49:57.798Z,98268.98
2019-04-26T18:52:28.322Z,98274.00
2019-04-26T18:55:08.772Z,98268.48
2019-04-26T18:57:43.052Z,98270.46
2019-04-26T19:00:28.996Z,98268.29
2019-04-26T19:03:02.256Z,98261.33
2019-04-26T19:05:36.309Z,98262.98
2019-04-26T19:08:10.144Z,98266.16
2019-04-26T19:10:43.747Z,98267.70
2019-04-26T19:13:56.342Z,98261.52
2019-04-26T19:16:58.855Z,98265.49
2019-04-26T19:19:45.303Z,98266.81
2019-04-26T19:22:20.292Z,98265.34
2019-04-26T19:24:56.605Z,98261.22
2019-04-26T19:27:28.927Z,98260.59
2019-04-26T19:30:08.851Z,98262.20
2019-04-26T19:32:39.700Z,98253.84
2019-04-26T19:35:14.516Z,98258.23
2019-04-26T19:37:47.850Z,98258.34
2019-04-26T19:40:20.724Z,98267.41
2019-04-26T19:42:57.537Z,98266.23
2019-04-26T19:45:39.550Z,98257.50
2019-04-26T19:48:55.555Z,98265.13
2019-04-26T19:51:47.295Z,98273.89
2019-04-26T19:54:55.224Z,98282.95
2019-04-26T19:57:39.097Z,98284.95
2019-04-26T20:00:12.038Z,98294.19
2019-04-26T20:02:47.396Z,98284.58
2019-04-26T20:05:22.553Z,98289.22
2019-04-26T20:07:58.424Z,98283.47
2019-04-26T20:10:34.597Z,98283.22
2019-04-26T20:13:07.624Z,98278.17
2019-04-26T20:15:42.429Z,98275.88
2019-04-26T20:18:17.361Z,98278.53
2019-04-26T20:20:48.887Z,98276.66
2019-04-26T20:23:22.860Z,98288.41
2019-04-26T20:25:55.933Z,98284.58
2019-04-26T20:28:29.697Z,98290.21
2019-04-26T20:31:29.142Z,98284.87
2019-04-26T20:34:05.556Z,98287.96
2019-04-26T20:36:40.710Z,98290.42
2019-04-26T20:39:12.591Z,98285.45
2019-04-26T20:41:45.944Z,98292.68
2019-04-26T20:44:23.899Z,98293.13
2019-04-26T20:46:54.095Z,98296.07
2019-04-26T20:49:27.727Z,98298.80
2019-04-26T20:52:02.006Z,98299.09
2019-04-26T20:54:36.092Z,98298.75
2019-04-26T20:57:09.344Z,98298.80
2019-04-26T20:59:43.364Z,98294.45
2019-04-26T21:02:20.759Z,98287.38
2019-04-26T21:04:52.614Z,98282.22
2019-04-26T21:07:26.153Z,98289.66
2019-04-26T21:09:59.913Z,98292.13
2019-04-26T21:12:33.679Z,98298.86
2019-04-26T21:15:08.393Z,98302.65
2019-04-26T21:17:42.664Z,98303.69
2019-04-26T21:20:16.501Z,98301.70
2019-04-26T21:22:50.309Z,98296.44
2019-04-26T21:25:35.377Z,98299.16
2019-04-26T21:28:24.707Z,98291.39
2019-04-26T21:31:09.619Z,98288.98
2019-04-26T21:33:46.983Z,98290.15
2019-04-26T21:36:34.680Z,98285.41
2019-04-26T21:39:21.281Z,98292.42
2019-04-26T21:41:55.055Z,98291.72
2019-04-26T21:44:29.030Z,98292.47
2019-04-26T21:47:03.349Z,98292.58
2019-04-26T21:49:38.125Z,98297.00
2019-04-26T21:52:11.307Z,98298.06
2019-04-26T21:54:43.690Z,98307.00
2019-04-26T21:57:18.339Z,98306.48
2019-04-26T21:59:53.895Z,98318.03
2019-04-26T22:02:29.681Z,98309.00
2019-04-26T22:05:08.102Z,98311.45
2019-04-26T22:07:44.748Z,98309.70
2019-04-26T22:10:23.181Z,98315.94
2019-04-26T22:12:56.515Z,98316.03
2019-04-26T22:15:39.991Z,98316.33
2019-04-26T22:18:21.552Z,98316.52
2019-04-26T22:21:29.969Z,98313.14
2019-04-26T22:24:20.883Z,98312.77
2019-04-26T22:26:54.234Z,98311.63
2019-04-26T22:29:27.465Z,98315.41
2019-04-26T22:32:00.429Z,98317.98
2019-04-26T22:34:33.450Z,98318.97
2019-04-26T22:37:11.183Z,98316.66
2019-04-26T22:39:41.614Z,98318.64
2019-04-26T22:42:15.344Z,98312.06
2019-04-26T22:44:54.125Z,98316.08
2019-04-26T22:47:40.899Z,98321.38
2019-04-26T22:50:14.050Z,98326.39
2019-04-26T22:52:51.552Z,98327.67
2019-04-26T22:55:27.098Z,98323.36
2019-04-26T22:57:56.778Z,98319.86
2019-04-26T23:00:33.852Z,98315.33
2019-04-26T23:03:09.050Z,98319.12
2019-04-26T23:05:43.236Z,98315.98
2019-04-26T23:08:16.522Z,98313.05
2019-04-26T23:10:50.613Z,98308.85
2019-04-26T23:13:45.199Z,98299.09
2019-04-26T23:16:33.816Z,98301.62
2019-04-26T23:19:29.655Z,98290.02
2019-04-26T23:22:04.068Z,98274.45
2019-04-26T23:24:37.526Z,98272.70
2019-04-26T23:27:08.873Z,98274.55
2019-04-26T23:29:41.467Z,98271.75
2019-04-26T23:32:18.565Z,98280.28
2019-04-26T23:34:49.886Z,98274.85
2019-04-26T23:37:27.444Z,98277.79
2019-04-26T23:39:59.457Z,98280.30
2019-04-26T23:42:33.081Z,98276.47
2019-04-26T23:45:10.719Z,98274.53
2019-04-26T23:47:43.735Z,98278.64
2019-04-26T23:50:17.559Z,98277.92
2019-04-26T23:52:52.948Z,98272.03
2019-04-26T23:55:26.052Z,98272.27
2019-04-26T23:57:59.208Z,98273.53
